Terminal Aerodrome Forecast
Issued by NWS Houston/Galveston, TX

Home | Current Version | Previous Version | Text Only | Print | Product List | Glossary On
Versions: 1 2 3 4 5 6 7 8 9 10 11 12 13
000
FTUS44 KHGX 170526
TAFGLS
TAF
KGLS 170526Z 1706/1806 36017G27KT P6SM OVC060
     FM171000 01019KT P6SM SCT250
     FM180000 02008KT P6SM SCT250=

USA.gov is the U.S. government's official web portal to all federal, state and local government web resources and services.